Russell Municipal Airport
KRSL : rendu visible

Aérodrome :











RETROUVEZ-NOUS SUR...

 
LOGIN :

S'inscrire | Disclaimer

   EN    FR    IT 

 









Légende :    VFR   VFR Marginal   IFR   IFR Intensif   IFR Très Intensif
Visi : 
Plafond : 
>= 8 km
>= 3000ft
5 à 8 km
1000 à 3000 ft
1500m à 5 km
500 à 1000 ft
800 à 1500m
200 à 500 ft
< 800m
< 200 ft
Symboles :   Orages  Brouillard  Fortes neiges  Fortes précipitations  Vent > 20 kt






- Altitude de l'aérodrome : 1862 ft


KRSL - Russell Municipal

DERNIER METAR :
  • 150653Z AUTO 20010KT 10SM CLR 01/M04 A3033 RMK AO2 SLP280 T00111039

METARs EXPIRÉS :
  • 150553Z AUTO 20010KT 10SM CLR 00/M04 A3034 RMK AO2 SLP285 T00001044 10078 21011 401221033 58001
  • 150453Z AUTO 19009KT 10SM CLR M01/M05 A3034 RMK AO2 SLP286 T10061050

TAF KRSL
Valide du 15 à 06h jusqu'au 16 à 06h UTC


150535Z 1506/1606 19009KT P6SM SKC
FM151500 19013KT P6SM SKC
FM151700 18017G22KT P6SM SKC
FM152000 18022G26KT P6SM SKC



MET'MAP, la Météo Aéronautique d'un coup d'oeil ! - Copyright ORBIFLY Décembre 2007 - Disclaimer

ORBIFLY MET'MAP TEAM :

Programmation & Développement : Alexandra Zaïnal
Conception & Développement : Baudouin d'Aumeries
Co-Programmation & Développement : Marc-Olivier Méhu
Soutien technique & logistique : Manuel Goepfert

Contact : metmap@orbifly.com




SOURCES & CREDITS :

   NOAA       Earth
Advisory